sensor_id;sensor_type;location;lat;lon;timestamp;pressure;altitude;pressure_sealevel;temperature;humidity
69855;BME280;57146;48.140;16.304;2024-02-23T00:01:11;97396.09;;;7.14;97.39
69855;BME280;57146;48.140;16.304;2024-02-23T00:03:38;97404.72;;;7.15;97.34
69855;BME280;57146;48.140;16.304;2024-02-23T00:06:06;97390.56;;;7.16;97.24
69855;BME280;57146;48.140;16.304;2024-02-23T00:08:33;97392.41;;;7.15;96.93
69855;BME280;57146;48.140;16.304;2024-02-23T00:11:01;97392.41;;;7.15;97.05
69855;BME280;57146;48.140;16.304;2024-02-23T00:13:28;97389.00;;;7.15;97.14
69855;BME280;57146;48.140;16.304;2024-02-23T00:15:54;97392.84;;;7.17;96.87
69855;BME280;57146;48.140;16.304;2024-02-23T00:18:21;97388.69;;;7.16;96.90
69855;BME280;57146;48.140;16.304;2024-02-23T00:20:48;97387.94;;;7.16;96.73
69855;BME280;57146;48.140;16.304;2024-02-23T00:23:15;97381.50;;;7.13;96.75
69855;BME280;57146;48.140;16.304;2024-02-23T00:25:42;97385.63;;;7.14;96.82
69855;BME280;57146;48.140;16.304;2024-02-23T00:28:09;97385.22;;;7.12;97.03
69855;BME280;57146;48.140;16.304;2024-02-23T00:30:36;97380.63;;;7.09;97.06
69855;BME280;57146;48.140;16.304;2024-02-23T00:33:03;97385.84;;;7.09;97.10
69855;BME280;57146;48.140;16.304;2024-02-23T00:35:30;97379.53;;;7.10;96.72
69855;BME280;57146;48.140;16.304;2024-02-23T00:37:57;97378.75;;;7.10;96.61
69855;BME280;57146;48.140;16.304;2024-02-23T00:40:25;97376.59;;;7.12;96.60
69855;BME280;57146;48.140;16.304;2024-02-23T00:42:51;97379.97;;;7.12;96.20
69855;BME280;57146;48.140;16.304;2024-02-23T00:45:19;97377.34;;;7.12;96.03
69855;BME280;57146;48.140;16.304;2024-02-23T00:47:46;97376.59;;;7.12;96.42
69855;BME280;57146;48.140;16.304;2024-02-23T00:50:14;97376.13;;;7.10;96.61
69855;BME280;57146;48.140;16.304;2024-02-23T00:52:41;97375.38;;;7.09;96.69
69855;BME280;57146;48.140;16.304;2024-02-23T00:55:08;97385.72;;;7.06;96.63
69855;BME280;57146;48.140;16.304;2024-02-23T00:57:36;97384.38;;;7.00;95.48
69855;BME280;57146;48.140;16.304;2024-02-23T01:00:03;97390.84;;;7.02;94.82
69855;BME280;57146;48.140;16.304;2024-02-23T01:02:31;97398.81;;;7.06;95.02
69855;BME280;57146;48.140;16.304;2024-02-23T01:04:58;97407.09;;;7.08;95.30
69855;BME280;57146;48.140;16.304;2024-02-23T01:07:27;97402.31;;;7.10;95.36
69855;BME280;57146;48.140;16.304;2024-02-23T01:09:54;97403.06;;;7.10;95.72
69855;BME280;57146;48.140;16.304;2024-02-23T01:12:21;97384.00;;;7.10;95.73
69855;BME280;57146;48.140;16.304;2024-02-23T01:14:48;97383.53;;;7.08;95.92
69855;BME280;57146;48.140;16.304;2024-02-23T01:17:15;97375.69;;;7.08;96.44
69855;BME280;57146;48.140;16.304;2024-02-23T01:19:43;97372.66;;;7.06;96.81
69855;BME280;57146;48.140;16.304;2024-02-23T01:22:10;97374.38;;;7.02;96.85
69855;BME280;57146;48.140;16.304;2024-02-23T01:24:37;97373.63;;;7.01;96.78
69855;BME280;57146;48.140;16.304;2024-02-23T01:27:04;97393.13;;;7.04;96.31
69855;BME280;57146;48.140;16.304;2024-02-23T01:29:31;97382.53;;;7.00;96.54
69855;BME280;57146;48.140;16.304;2024-02-23T01:31:58;97402.81;;;7.03;96.39
69855;BME280;57146;48.140;16.304;2024-02-23T01:34:25;97395.31;;;7.02;96.42
69855;BME280;57146;48.140;16.304;2024-02-23T01:36:52;97386.69;;;7.01;96.49
69855;BME280;57146;48.140;16.304;2024-02-23T01:39:19;97394.53;;;7.01;96.62
69855;BME280;57146;48.140;16.304;2024-02-23T01:41:47;97393.44;;;7.02;96.93
69855;BME280;57146;48.140;16.304;2024-02-23T01:44:13;97384.84;;;7.02;96.70
69855;BME280;57146;48.140;16.304;2024-02-23T01:46:41;97391.47;;;6.99;96.54
69855;BME280;57146;48.140;16.304;2024-02-23T01:49:08;97383.28;;;7.01;96.36
69855;BME280;57146;48.140;16.304;2024-02-23T01:51:36;97385.91;;;7.01;96.06
69855;BME280;57146;48.140;16.304;2024-02-23T01:54:03;97376.53;;;7.00;96.14
69855;BME280;57146;48.140;16.304;2024-02-23T01:56:32;97375.00;;;6.99;96.13
69855;BME280;57146;48.140;16.304;2024-02-23T01:59:00;97369.78;;;6.99;96.16
69855;BME280;57146;48.140;16.304;2024-02-23T02:01:30;97366.41;;;6.98;95.93
69855;BME280;57146;48.140;16.304;2024-02-23T02:03:59;97368.56;;;6.96;96.10
69855;BME280;57146;48.140;16.304;2024-02-23T02:06:26;97369.34;;;6.96;96.37
69855;BME280;57146;48.140;16.304;2024-02-23T02:08:53;97368.56;;;6.96;96.54
69855;BME280;57146;48.140;16.304;2024-02-23T02:11:20;97369.66;;;6.95;96.83
69855;BME280;57146;48.140;16.304;2024-02-23T02:13:48;97372.59;;;6.93;96.75
69855;BME280;57146;48.140;16.304;2024-02-23T02:16:15;97373.03;;;6.95;96.68
69855;BME280;57146;48.140;16.304;2024-02-23T02:18:42;97374.13;;;6.94;96.79
69855;BME280;57146;48.140;16.304;2024-02-23T02:21:08;97380.44;;;6.93;96.86
69855;BME280;57146;48.140;16.304;2024-02-23T02:23:35;97384.13;;;6.92;96.88
69855;BME280;57146;48.140;16.304;2024-02-23T02:26:05;97381.41;;;6.89;97.29
69855;BME280;57146;48.140;16.304;2024-02-23T02:28:32;97386.31;;;6.90;97.16
69855;BME280;57146;48.140;16.304;2024-02-23T02:30:59;97385.88;;;6.88;97.41
69855;BME280;57146;48.140;16.304;2024-02-23T02:33:26;97394.06;;;6.87;97.63
69855;BME280;57146;48.140;16.304;2024-02-23T02:35:52;97406.22;;;6.83;97.36
69855;BME280;57146;48.140;16.304;2024-02-23T02:38:20;97411.13;;;6.84;96.92
69855;BME280;57146;48.140;16.304;2024-02-23T02:40:46;97413.13;;;6.87;96.70
69855;BME280;57146;48.140;16.304;2024-02-23T02:43:13;97415.72;;;6.87;96.71
69855;BME280;57146;48.140;16.304;2024-02-23T02:45:40;97429.25;;;6.89;97.51
69855;BME280;57146;48.140;16.304;2024-02-23T02:48:07;97431.56;;;6.91;97.87
69855;BME280;57146;48.140;16.304;2024-02-23T02:50:35;97428.59;;;6.92;97.64
69855;BME280;57146;48.140;16.304;2024-02-23T02:53:03;97429.38;;;6.93;98.16
69855;BME280;57146;48.140;16.304;2024-02-23T02:55:30;97435.38;;;6.93;98.62
69855;BME280;57146;48.140;16.304;2024-02-23T02:57:56;97435.69;;;6.92;98.78
69855;BME280;57146;48.140;16.304;2024-02-23T03:00:24;97438.31;;;6.92;99.09
69855;BME280;57146;48.140;16.304;2024-02-23T03:02:50;97445.41;;;6.91;99.12
69855;BME280;57146;48.140;16.304;2024-02-23T03:05:17;97441.69;;;6.92;99.30
69855;BME280;57146;48.140;16.304;2024-02-23T03:07:44;97449.88;;;6.91;99.38
69855;BME280;57146;48.140;16.304;2024-02-23T03:10:11;97440.94;;;6.92;99.96
69855;BME280;57146;48.140;16.304;2024-02-23T03:12:38;97439.69;;;6.89;100.00
69855;BME280;57146;48.140;16.304;2024-02-23T03:15:05;97443.41;;;6.88;100.00
69855;BME280;57146;48.140;16.304;2024-02-23T03:17:33;97442.66;;;6.88;100.00
69855;BME280;57146;48.140;16.304;2024-02-23T03:20:00;97447.13;;;6.87;100.00
69855;BME280;57146;48.140;16.304;2024-02-23T03:22:28;97458.34;;;6.88;100.00
69855;BME280;57146;48.140;16.304;2024-02-23T03:24:54;97463.25;;;6.89;100.00
69855;BME280;57146;48.140;16.304;2024-02-23T03:27:28;97468.47;;;6.89;100.00
69855;BME280;57146;48.140;16.304;2024-02-23T03:29:55;97471.09;;;6.89;100.00
69855;BME280;57146;48.140;16.304;2024-02-23T03:32:23;97473.72;;;6.89;100.00
69855;BME280;57146;48.140;16.304;2024-02-23T03:34:51;97493.09;;;6.88;100.00
69855;BME280;57146;48.140;16.304;2024-02-23T03:37:17;97511.09;;;6.90;100.00
69855;BME280;57146;48.140;16.304;2024-02-23T03:39:44;97515.25;;;6.91;100.00
69855;BME280;57146;48.140;16.304;2024-02-23T03:42:11;97529.41;;;6.90;100.00
69855;BME280;57146;48.140;16.304;2024-02-23T03:44:38;97540.66;;;6.90;100.00
69855;BME280;57146;48.140;16.304;2024-02-23T03:47:05;97555.25;;;6.91;100.00
69855;BME280;57146;48.140;16.304;2024-02-23T03:49:32;97552.63;;;6.91;100.00
69855;BME280;57146;48.140;16.304;2024-02-23T03:51:59;97558.63;;;6.92;100.00
69855;BME280;57146;48.140;16.304;2024-02-23T03:54:27;97564.19;;;6.90;100.00
69855;BME280;57146;48.140;16.304;2024-02-23T03:56:53;97568.63;;;6.90;100.00
69855;BME280;57146;48.140;16.304;2024-02-23T03:59:20;97583.25;;;6.91;100.00
69855;BME280;57146;48.140;16.304;2024-02-23T04:01:47;97612.34;;;6.89;100.00
69855;BME280;57146;48.140;16.304;2024-02-23T04:04:14;97626.31;;;6.93;100.00
69855;BME280;57146;48.140;16.304;2024-02-23T04:06:41;97647.50;;;7.09;100.00
69855;BME280;57146;48.140;16.304;2024-02-23T04:09:09;97626.50;;;7.18;100.00
69855;BME280;57146;48.140;16.304;2024-02-23T04:11:37;97629.72;;;7.24;100.00
69855;BME280;57146;48.140;16.304;2024-02-23T04:14:04;97639.84;;;7.25;100.00
69855;BME280;57146;48.140;16.304;2024-02-23T04:16:31;97641.06;;;7.28;100.00
69855;BME280;57146;48.140;16.304;2024-02-23T04:18:58;97642.16;;;7.27;100.00
69855;BME280;57146;48.140;16.304;2024-02-23T04:21:26;97641.22;;;7.31;100.00
69855;BME280;57146;48.140;16.304;2024-02-23T04:23:52;97645.97;;;7.29;100.00
69855;BME280;57146;48.140;16.304;2024-02-23T04:26:20;97648.31;;;7.31;100.00
69855;BME280;57146;48.140;16.304;2024-02-23T04:28:47;97649.06;;;7.31;100.00
69855;BME280;57146;48.140;16.304;2024-02-23T04:31:13;97647.66;;;7.34;99.97
69855;BME280;57146;48.140;16.304;2024-02-23T04:33:41;97639.19;;;7.37;97.84
69855;BME280;57146;48.140;16.304;2024-02-23T04:36:08;97649.03;;;7.40;97.49
69855;BME280;57146;48.140;16.304;2024-02-23T04:38:36;97652.41;;;7.40;98.24
69855;BME280;57146;48.140;16.304;2024-02-23T04:41:04;97664.72;;;7.40;96.93
69855;BME280;57146;48.140;16.304;2024-02-23T04:43:31;97656.88;;;7.40;96.65
69855;BME280;57146;48.140;16.304;2024-02-23T04:45:59;97655.47;;;7.42;96.59
69855;BME280;57146;48.140;16.304;2024-02-23T04:48:25;97656.88;;;7.40;96.38
69855;BME280;57146;48.140;16.304;2024-02-23T04:50:53;97649.78;;;7.40;95.04
69855;BME280;57146;48.140;16.304;2024-02-23T04:53:20;97653.47;;;7.39;95.20
69855;BME280;57146;48.140;16.304;2024-02-23T04:55:47;97657.00;;;7.43;93.41
69855;BME280;57146;48.140;16.304;2024-02-23T04:58:14;97658.53;;;7.44;91.77
69855;BME280;57146;48.140;16.304;2024-02-23T05:00:42;97652.41;;;7.40;93.42
69855;BME280;57146;48.140;16.304;2024-02-23T05:03:09;97650.72;;;7.36;93.80
69855;BME280;57146;48.140;16.304;2024-02-23T05:05:38;97651.19;;;7.38;93.02
69855;BME280;57146;48.140;16.304;2024-02-23T05:08:05;97650.72;;;7.36;92.70
69855;BME280;57146;48.140;16.304;2024-02-23T05:10:33;97649.19;;;7.35;93.32
69855;BME280;57146;48.140;16.304;2024-02-23T05:13:00;97657.38;;;7.33;92.84
69855;BME280;57146;48.140;16.304;2024-02-23T05:15:27;97655.81;;;7.32;93.39
69855;BME280;57146;48.140;16.304;2024-02-23T05:17:53;97677.38;;;7.29;93.43
69855;BME280;57146;48.140;16.304;2024-02-23T05:20:20;97679.84;;;7.34;93.07
69855;BME280;57146;48.140;16.304;2024-02-23T05:22:48;97674.94;;;7.33;92.52
69855;BME280;57146;48.140;16.304;2024-02-23T05:25:16;97681.38;;;7.35;91.66
69855;BME280;57146;48.140;16.304;2024-02-23T05:27:43;97678.44;;;7.37;93.37
69855;BME280;57146;48.140;16.304;2024-02-23T05:30:10;97682.00;;;7.32;94.06
69855;BME280;57146;48.140;16.304;2024-02-23T05:32:37;97686.47;;;7.32;93.30
69855;BME280;57146;48.140;16.304;2024-02-23T05:35:05;97698.50;;;7.33;93.39
69855;BME280;57146;48.140;16.304;2024-02-23T05:37:36;97709.72;;;7.33;92.67
69855;BME280;57146;48.140;16.304;2024-02-23T05:40:03;97710.34;;;7.30;92.60
69855;BME280;57146;48.140;16.304;2024-02-23T05:42:31;97712.34;;;7.33;91.31
69855;BME280;57146;48.140;16.304;2024-02-23T05:44:59;97711.59;;;7.33;92.73
69855;BME280;57146;48.140;16.304;2024-02-23T05:47:26;97716.03;;;7.32;92.16
69855;BME280;57146;48.140;16.304;2024-02-23T05:49:53;97723.75;;;7.29;92.22
69855;BME280;57146;48.140;16.304;2024-02-23T05:52:20;97720.34;;;7.28;91.64
69855;BME280;57146;48.140;16.304;2024-02-23T05:54:47;97729.56;;;7.34;88.36
69855;BME280;57146;48.140;16.304;2024-02-23T05:57:19;97734.47;;;7.36;89.60
69855;BME280;57146;48.140;16.304;2024-02-23T05:59:46;97731.44;;;7.34;89.62
69855;BME280;57146;48.140;16.304;2024-02-23T06:02:13;97742.34;;;7.36;87.84
69855;BME280;57146;48.140;16.304;2024-02-23T06:04:40;97757.28;;;7.35;88.60
69855;BME280;57146;48.140;16.304;2024-02-23T06:07:07;97751.59;;;7.33;88.11
69855;BME280;57146;48.140;16.304;2024-02-23T06:09:34;97764.69;;;7.33;88.20
69855;BME280;57146;48.140;16.304;2024-02-23T06:12:01;97764.38;;;7.35;87.42
69855;BME280;57146;48.140;16.304;2024-02-23T06:14:28;97760.38;;;7.37;86.27
69855;BME280;57146;48.140;16.304;2024-02-23T06:16:55;97774.22;;;7.38;87.38
69855;BME280;57146;48.140;16.304;2024-02-23T06:19:22;97773.75;;;7.36;87.45
69855;BME280;57146;48.140;16.304;2024-02-23T06:21:49;97776.38;;;7.36;86.68
69855;BME280;57146;48.140;16.304;2024-02-23T06:24:16;97773.75;;;7.36;85.89
69855;BME280;57146;48.140;16.304;2024-02-23T06:26:43;97771.94;;;7.36;85.74
69855;BME280;57146;48.140;16.304;2024-02-23T06:29:10;97786.22;;;7.39;85.80
69855;BME280;57146;48.140;16.304;2024-02-23T06:31:37;97784.38;;;7.39;84.53
69855;BME280;57146;48.140;16.304;2024-02-23T06:34:05;97795.16;;;7.38;84.33
69855;BME280;57146;48.140;16.304;2024-02-23T06:36:32;97801.47;;;7.37;84.57
69855;BME280;57146;48.140;16.304;2024-02-23T06:38:59;97804.88;;;7.37;84.09
69855;BME280;57146;48.140;16.304;2024-02-23T06:41:26;97805.00;;;7.41;82.81
69855;BME280;57146;48.140;16.304;2024-02-23T06:43:53;97809.34;;;7.37;83.91
69855;BME280;57146;48.140;16.304;2024-02-23T06:46:20;97814.09;;;7.35;85.40
69855;BME280;57146;48.140;16.304;2024-02-23T06:48:46;97811.81;;;7.33;86.24
69855;BME280;57146;48.140;16.304;2024-02-23T06:51:13;97816.59;;;7.31;86.43
69855;BME280;57146;48.140;16.304;2024-02-23T06:53:40;97823.66;;;7.31;86.10
69855;BME280;57146;48.140;16.304;2024-02-23T06:56:07;97819.53;;;7.30;86.94
69855;BME280;57146;48.140;16.304;2024-02-23T06:58:34;97829.66;;;7.31;86.40
69855;BME280;57146;48.140;16.304;2024-02-23T07:01:01;97829.38;;;7.33;88.30
69855;BME280;57146;48.140;16.304;2024-02-23T07:03:29;97824.44;;;7.31;89.20
69855;BME280;57146;48.140;16.304;2024-02-23T07:05:56;97835.38;;;7.33;86.88
69855;BME280;57146;48.140;16.304;2024-02-23T07:08:23;97847.38;;;7.34;87.81
69855;BME280;57146;48.140;16.304;2024-02-23T07:10:50;97849.66;;;7.36;89.00
69855;BME280;57146;48.140;16.304;2024-02-23T07:13:17;97855.22;;;7.34;89.68
69855;BME280;57146;48.140;16.304;2024-02-23T07:15:43;97844.44;;;7.36;90.15
69855;BME280;57146;48.140;16.304;2024-02-23T07:18:10;97859.06;;;7.37;90.45
69855;BME280;57146;48.140;16.304;2024-02-23T07:20:37;97864.75;;;7.39;89.42
69855;BME280;57146;48.140;16.304;2024-02-23T07:23:05;97872.59;;;7.39;89.65
69855;BME280;57146;48.140;16.304;2024-02-23T07:25:32;97870.75;;;7.39;88.46
69855;BME280;57146;48.140;16.304;2024-02-23T07:27:59;97875.22;;;7.39;86.81
69855;BME280;57146;48.140;16.304;2024-02-23T07:30:26;97888.47;;;7.42;83.74
69855;BME280;57146;48.140;16.304;2024-02-23T07:32:53;97895.25;;;7.43;83.45
69855;BME280;57146;48.140;16.304;2024-02-23T07:35:20;97901.69;;;7.46;83.79
69855;BME280;57146;48.140;16.304;2024-02-23T07:37:47;97898.31;;;7.46;82.04
69855;BME280;57146;48.140;16.304;2024-02-23T07:40:15;97914.50;;;7.48;82.47
69855;BME280;57146;48.140;16.304;2024-02-23T07:42:46;97922.78;;;7.50;83.02
69855;BME280;57146;48.140;16.304;2024-02-23T07:45:13;97931.13;;;7.52;83.16
69855;BME280;57146;48.140;16.304;2024-02-23T07:47:40;97922.94;;;7.53;83.09
69855;BME280;57146;48.140;16.304;2024-02-23T07:50:08;97915.84;;;7.54;84.78
69855;BME280;57146;48.140;16.304;2024-02-23T07:52:35;97922.16;;;7.53;85.65
69855;BME280;57146;48.140;16.304;2024-02-23T07:55:02;97930.03;;;7.53;85.91
69855;BME280;57146;48.140;16.304;2024-02-23T07:57:29;97936.16;;;7.57;84.45
69855;BME280;57146;48.140;16.304;2024-02-23T07:59:56;97941.13;;;7.58;83.83
69855;BME280;57146;48.140;16.304;2024-02-23T08:02:23;97939.25;;;7.59;83.39
69855;BME280;57146;48.140;16.304;2024-02-23T08:04:51;97948.34;;;7.61;83.70
69855;BME280;57146;48.140;16.304;2024-02-23T08:07:18;97941.25;;;7.62;83.52
69855;BME280;57146;48.140;16.304;2024-02-23T08:09:45;97934.94;;;7.63;84.83
69855;BME280;57146;48.140;16.304;2024-02-23T08:12:12;97951.72;;;7.62;84.04
69855;BME280;57146;48.140;16.304;2024-02-23T08:14:39;97961.13;;;7.63;84.87
69855;BME280;57146;48.140;16.304;2024-02-23T08:17:06;97974.97;;;7.63;85.18
69855;BME280;57146;48.140;16.304;2024-02-23T08:19:33;97971.59;;;7.63;86.40
69855;BME280;57146;48.140;16.304;2024-02-23T08:22:00;97954.03;;;7.63;86.60
69855;BME280;57146;48.140;16.304;2024-02-23T08:24:28;97954.50;;;7.65;86.75
69855;BME280;57146;48.140;16.304;2024-02-23T08:26:55;97965.75;;;7.66;88.24
69855;BME280;57146;48.140;16.304;2024-02-23T08:29:22;97969.13;;;7.66;88.77
69855;BME280;57146;48.140;16.304;2024-02-23T08:31:49;97962.50;;;7.69;87.03
69855;BME280;57146;48.140;16.304;2024-02-23T08:34:16;97962.50;;;7.69;86.36
69855;BME280;57146;48.140;16.304;2024-02-23T08:36:43;97976.50;;;7.73;84.57
69855;BME280;57146;48.140;16.304;2024-02-23T08:39:10;97988.66;;;7.78;85.08
69855;BME280;57146;48.140;16.304;2024-02-23T08:41:37;97981.56;;;7.78;86.75
69855;BME280;57146;48.140;16.304;2024-02-23T08:44:04;97983.13;;;7.79;87.92
69855;BME280;57146;48.140;16.304;2024-02-23T08:46:31;97985.91;;;7.83;87.03
69855;BME280;57146;48.140;16.304;2024-02-23T08:48:58;97994.19;;;7.85;87.37
69855;BME280;57146;48.140;16.304;2024-02-23T08:51:25;97993.91;;;7.86;88.31
69855;BME280;57146;48.140;16.304;2024-02-23T08:53:53;97996.19;;;7.88;88.36
69855;BME280;57146;48.140;16.304;2024-02-23T08:56:23;97992.50;;;7.89;89.22
69855;BME280;57146;48.140;16.304;2024-02-23T08:58:50;97991.88;;;7.92;89.52
69855;BME280;57146;48.140;16.304;2024-02-23T09:01:17;98000.19;;;7.94;88.08
69855;BME280;57146;48.140;16.304;2024-02-23T09:03:44;97998.78;;;7.97;88.51
69855;BME280;57146;48.140;16.304;2024-02-23T09:06:11;97993.53;;;7.97;88.74
69855;BME280;57146;48.140;16.304;2024-02-23T09:08:39;98007.13;;;7.99;88.85
69855;BME280;57146;48.140;16.304;2024-02-23T09:11:06;98006.78;;;8.00;88.49
69855;BME280;57146;48.140;16.304;2024-02-23T09:13:33;98010.97;;;8.01;87.42
69855;BME280;57146;48.140;16.304;2024-02-23T09:16:00;98016.34;;;8.05;87.25
69855;BME280;57146;48.140;16.304;2024-02-23T09:18:27;98017.13;;;8.05;85.75
69855;BME280;57146;48.140;16.304;2024-02-23T09:20:54;98016.78;;;8.07;85.06
69855;BME280;57146;48.140;16.304;2024-02-23T09:23:21;98014.16;;;8.07;86.13
69855;BME280;57146;48.140;16.304;2024-02-23T09:25:48;98017.56;;;8.07;86.25
69855;BME280;57146;48.140;16.304;2024-02-23T09:28:15;98022.50;;;8.09;87.31
69855;BME280;57146;48.140;16.304;2024-02-23T09:30:42;98031.47;;;8.08;87.96
69855;BME280;57146;48.140;16.304;2024-02-23T09:33:09;98028.03;;;8.07;86.79
69855;BME280;57146;48.140;16.304;2024-02-23T09:35:36;98035.00;;;8.03;83.73
69855;BME280;57146;48.140;16.304;2024-02-23T09:38:03;98039.19;;;8.04;82.87
69855;BME280;57146;48.140;16.304;2024-02-23T09:40:31;98050.09;;;8.06;81.49
69855;BME280;57146;48.140;16.304;2024-02-23T09:42:58;98041.94;;;8.08;82.36
69855;BME280;57146;48.140;16.304;2024-02-23T09:45:26;98037.91;;;8.10;84.19
69855;BME280;57146;48.140;16.304;2024-02-23T09:47:54;98035.28;;;8.10;85.77
69855;BME280;57146;48.140;16.304;2024-02-23T09:50:23;98037.91;;;8.10;82.52
69855;BME280;57146;48.140;16.304;2024-02-23T09:52:51;98032.38;;;8.12;82.83
69855;BME280;57146;48.140;16.304;2024-02-23T09:55:21;98024.66;;;8.15;85.49
69855;BME280;57146;48.140;16.304;2024-02-23T09:57:51;98032.66;;;8.19;86.91
69855;BME280;57146;48.140;16.304;2024-02-23T10:00:18;98032.66;;;8.19;88.25
69855;BME280;57146;48.140;16.304;2024-02-23T10:03:09;98025.56;;;8.20;87.32
69855;BME280;57146;48.140;16.304;2024-02-23T10:05:36;98029.69;;;8.21;87.70
69855;BME280;57146;48.140;16.304;2024-02-23T10:08:07;98022.59;;;8.21;86.66
69855;BME280;57146;48.140;16.304;2024-02-23T10:10:35;98007.66;;;8.22;87.15
69855;BME280;57146;48.140;16.304;2024-02-23T10:13:05;98008.09;;;8.24;87.38
69855;BME280;57146;48.140;16.304;2024-02-23T10:15:32;97997.94;;;8.22;86.60
69855;BME280;57146;48.140;16.304;2024-02-23T10:18:01;98004.72;;;8.23;85.82
69855;BME280;57146;48.140;16.304;2024-02-23T10:20:28;98000.25;;;8.24;86.93
69855;BME280;57146;48.140;16.304;2024-02-23T10:22:56;97993.63;;;8.26;88.15
69855;BME280;57146;48.140;16.304;2024-02-23T10:25:23;97991.75;;;8.27;87.86
69855;BME280;57146;48.140;16.304;2024-02-23T10:27:51;97981.72;;;8.29;88.02
69855;BME280;57146;48.140;16.304;2024-02-23T10:30:18;97986.66;;;8.30;88.73
69855;BME280;57146;48.140;16.304;2024-02-23T10:32:45;97993.13;;;8.33;88.69
69855;BME280;57146;48.140;16.304;2024-02-23T10:35:16;97992.78;;;8.34;88.05
69855;BME280;57146;48.140;16.304;2024-02-23T10:37:48;97994.81;;;8.37;88.22
69855;BME280;57146;48.140;16.304;2024-02-23T10:40:16;97974.75;;;8.42;87.83
69855;BME280;57146;48.140;16.304;2024-02-23T10:42:44;97968.41;;;8.43;88.16
69855;BME280;57146;48.140;16.304;2024-02-23T10:45:16;97963.63;;;8.45;88.17
69855;BME280;57146;48.140;16.304;2024-02-23T10:47:43;97941.25;;;8.47;88.02
69855;BME280;57146;48.140;16.304;2024-02-23T10:50:12;97944.31;;;8.49;85.76
69855;BME280;57146;48.140;16.304;2024-02-23T10:52:43;97949.25;;;8.51;84.76
69855;BME280;57146;48.140;16.304;2024-02-23T10:55:12;97951.56;;;8.52;83.64
69855;BME280;57146;48.140;16.304;2024-02-23T10:57:39;97946.00;;;8.54;84.86
69855;BME280;57146;48.140;16.304;2024-02-23T11:00:08;97949.69;;;8.53;84.98
69855;BME280;57146;48.140;16.304;2024-02-23T11:02:40;97953.41;;;8.52;82.94
69855;BME280;57146;48.140;16.304;2024-02-23T11:05:09;97964.66;;;8.52;81.97
69855;BME280;57146;48.140;16.304;2024-02-23T11:07:41;97952.31;;;8.53;81.11
69855;BME280;57146;48.140;16.304;2024-02-23T11:10:08;97950.03;;;8.51;81.06
69855;BME280;57146;48.140;16.304;2024-02-23T11:12:35;97949.88;;;8.48;79.40
69855;BME280;57146;48.140;16.304;2024-02-23T11:15:03;97946.03;;;8.45;78.49
69855;BME280;57146;48.140;16.304;2024-02-23T11:17:31;97947.91;;;8.45;79.36
69855;BME280;57146;48.140;16.304;2024-02-23T11:20:02;97950.53;;;8.45;80.40
69855;BME280;57146;48.140;16.304;2024-02-23T11:22:33;97945.75;;;8.47;80.55
69855;BME280;57146;48.140;16.304;2024-02-23T11:25:07;97945.75;;;8.47;80.76
69855;BME280;57146;48.140;16.304;2024-02-23T11:27:35;97957.28;;;8.46;80.63
69855;BME280;57146;48.140;16.304;2024-02-23T11:30:04;97955.00;;;8.44;79.95
69855;BME280;57146;48.140;16.304;2024-02-23T11:32:47;97963.97;;;8.43;78.65
69855;BME280;57146;48.140;16.304;2024-02-23T11:35:46;97939.56;;;8.43;80.04
69855;BME280;57146;48.140;16.304;2024-02-23T11:38:15;97939.91;;;8.41;80.27
69855;BME280;57146;48.140;16.304;2024-02-23T11:40:44;97935.41;;;8.42;80.98
69855;BME280;57146;48.140;16.304;2024-02-23T11:43:37;97934.66;;;8.41;80.15
69855;BME280;57146;48.140;16.304;2024-02-23T11:46:07;97931.69;;;8.43;80.43
69855;BME280;57146;48.140;16.304;2024-02-23T11:48:34;97934.31;;;8.43;79.02
69855;BME280;57146;48.140;16.304;2024-02-23T11:51:01;97927.25;;;8.43;79.15
69855;BME280;57146;48.140;16.304;2024-02-23T11:53:28;97923.06;;;8.42;79.10
69855;BME280;57146;48.140;16.304;2024-02-23T11:55:57;97933.69;;;8.46;77.94
69855;BME280;57146;48.140;16.304;2024-02-23T11:58:24;97927.06;;;8.48;77.69
69855;BME280;57146;48.140;16.304;2024-02-23T12:00:52;97916.22;;;8.50;76.22
69855;BME280;57146;48.140;16.304;2024-02-23T12:03:19;97916.69;;;8.52;77.64
69855;BME280;57146;48.140;16.304;2024-02-23T12:05:49;97916.34;;;8.53;77.99
69855;BME280;57146;48.140;16.304;2024-02-23T12:08:17;97921.88;;;8.60;79.00
69855;BME280;57146;48.140;16.304;2024-02-23T12:10:44;97920.97;;;8.56;79.22
69855;BME280;57146;48.140;16.304;2024-02-23T12:13:11;97920.84;;;8.53;80.02
69855;BME280;57146;48.140;16.304;2024-02-23T12:15:39;97912.53;;;8.51;80.89
69855;BME280;57146;48.140;16.304;2024-02-23T12:18:06;97908.19;;;8.55;81.31
69855;BME280;57146;48.140;16.304;2024-02-23T12:20:33;97898.34;;;8.52;80.33
69855;BME280;57146;48.140;16.304;2024-02-23T12:23:01;97891.56;;;8.51;79.55
69855;BME280;57146;48.140;16.304;2024-02-23T12:25:28;97897.09;;;8.49;79.63
69855;BME280;57146;48.140;16.304;2024-02-23T12:27:58;97892.81;;;8.45;80.62
69855;BME280;57146;48.140;16.304;2024-02-23T12:30:29;97887.91;;;8.43;81.92
69855;BME280;57146;48.140;16.304;2024-02-23T12:33:06;97882.22;;;8.41;82.19
69855;BME280;57146;48.140;16.304;2024-02-23T12:35:34;97880.34;;;8.42;82.58
69855;BME280;57146;48.140;16.304;2024-02-23T12:38:01;97873.25;;;8.42;83.52
69855;BME280;57146;48.140;16.304;2024-02-23T12:40:29;97866.00;;;8.39;83.11
69855;BME280;57146;48.140;16.304;2024-02-23T12:42:56;97865.72;;;8.41;83.88
69855;BME280;57146;48.140;16.304;2024-02-23T12:45:23;97854.88;;;8.42;83.56
69855;BME280;57146;48.140;16.304;2024-02-23T12:47:50;97852.13;;;8.38;83.96
69855;BME280;57146;48.140;16.304;2024-02-23T12:50:17;97861.56;;;8.39;84.69
69855;BME280;57146;48.140;16.304;2024-02-23T12:52:44;97860.47;;;8.41;84.80
69855;BME280;57146;48.140;16.304;2024-02-23T12:55:12;97854.47;;;8.40;85.94
69855;BME280;57146;48.140;16.304;2024-02-23T12:57:39;97858.16;;;8.39;86.23
69855;BME280;57146;48.140;16.304;2024-02-23T13:00:07;97846.91;;;8.38;86.58
69855;BME280;57146;48.140;16.304;2024-02-23T13:02:34;97847.66;;;8.39;88.31